sensor_id;sensor_type;location;lat;lon;timestamp;P1;durP1;ratioP1;P2;durP2;ratioP2
63438;SDS011;49567;48.958;8.294;2022-07-01T00:01:40;0.20;;;0.10;;
63438;SDS011;49567;48.958;8.294;2022-07-01T00:04:05;2.20;;;0.47;;
63438;SDS011;49567;48.958;8.294;2022-07-01T00:06:31;1.27;;;0.20;;
63438;SDS011;49567;48.958;8.294;2022-07-01T00:08:57;0.40;;;0.20;;
63438;SDS011;49567;48.958;8.294;2022-07-01T00:11:22;1.10;;;0.20;;
63438;SDS011;49567;48.958;8.294;2022-07-01T00:13:48;1.00;;;0.10;;
63438;SDS011;49567;48.958;8.294;2022-07-01T00:16:13;0.27;;;0.10;;
63438;SDS011;49567;48.958;8.294;2022-07-01T00:18:38;0.30;;;0.13;;
63438;SDS011;49567;48.958;8.294;2022-07-01T00:21:03;0.20;;;0.20;;
63438;SDS011;49567;48.958;8.294;2022-07-01T00:23:29;1.97;;;0.30;;
63438;SDS011;49567;48.958;8.294;2022-07-01T00:25:54;0.22;;;0.10;;
63438;SDS011;49567;48.958;8.294;2022-07-01T00:28:20;0.17;;;0.17;;
63438;SDS011;49567;48.958;8.294;2022-07-01T00:30:45;0.50;;;0.10;;
63438;SDS011;49567;48.958;8.294;2022-07-01T00:33:11;0.60;;;0.20;;
63438;SDS011;49567;48.958;8.294;2022-07-01T00:35:36;0.87;;;0.20;;
63438;SDS011;49567;48.958;8.294;2022-07-01T00:38:01;0.50;;;0.10;;
63438;SDS011;49567;48.958;8.294;2022-07-01T00:40:27;0.10;;;0.10;;
63438;SDS011;49567;48.958;8.294;2022-07-01T00:42:53;0.30;;;0.13;;
63438;SDS011;49567;48.958;8.294;2022-07-01T00:45:18;0.70;;;0.20;;
63438;SDS011;49567;48.958;8.294;2022-07-01T00:47:43;0.50;;;0.20;;
63438;SDS011;49567;48.958;8.294;2022-07-01T00:50:10;1.50;;;0.10;;
63438;SDS011;49567;48.958;8.294;2022-07-01T00:52:37;0.20;;;0.10;;
63438;SDS011;49567;48.958;8.294;2022-07-01T00:55:04;0.30;;;0.20;;
63438;SDS011;49567;48.958;8.294;2022-07-01T00:57:32;0.65;;;0.20;;
63438;SDS011;49567;48.958;8.294;2022-07-01T01:00:01;0.60;;;0.30;;
63438;SDS011;49567;48.958;8.294;2022-07-01T01:02:29;1.50;;;0.30;;
63438;SDS011;49567;48.958;8.294;2022-07-01T01:04:54;2.17;;;0.20;;
63438;SDS011;49567;48.958;8.294;2022-07-01T01:07:19;0.60;;;0.20;;
63438;SDS011;49567;48.958;8.294;2022-07-01T01:09:45;0.70;;;0.40;;
63438;SDS011;49567;48.958;8.294;2022-07-01T01:12:10;0.50;;;0.37;;
63438;SDS011;49567;48.958;8.294;2022-07-01T01:14:46;0.10;;;0.10;;
63438;SDS011;49567;48.958;8.294;2022-07-01T01:17:13;0.80;;;0.40;;
63438;SDS011;49567;48.958;8.294;2022-07-01T01:19:40;0.80;;;0.20;;
63438;SDS011;49567;48.958;8.294;2022-07-01T01:22:06;0.25;;;0.10;;
63438;SDS011;49567;48.958;8.294;2022-07-01T01:24:32;0.30;;;0.30;;
63438;SDS011;49567;48.958;8.294;2022-07-01T01:26:57;0.08;;;0.00;;
63438;SDS011;49567;48.958;8.294;2022-07-01T01:29:22;0.50;;;0.10;;
63438;SDS011;49567;48.958;8.294;2022-07-01T01:31:48;0.20;;;0.20;;
63438;SDS011;49567;48.958;8.294;2022-07-01T01:34:13;1.00;;;0.23;;
63438;SDS011;49567;48.958;8.294;2022-07-01T01:36:38;0.10;;;0.10;;
63438;SDS011;49567;48.958;8.294;2022-07-01T01:39:04;0.40;;;0.20;;
63438;SDS011;49567;48.958;8.294;2022-07-01T01:41:33;0.40;;;0.28;;
63438;SDS011;49567;48.958;8.294;2022-07-01T01:43:58;0.33;;;0.20;;
63438;SDS011;49567;48.958;8.294;2022-07-01T01:46:23;0.20;;;0.20;;
63438;SDS011;49567;48.958;8.294;2022-07-01T01:48:49;1.13;;;0.20;;
63438;SDS011;49567;48.958;8.294;2022-07-01T01:51:14;2.60;;;0.13;;
63438;SDS011;49567;48.958;8.294;2022-07-01T01:53:39;1.20;;;0.10;;
63438;SDS011;49567;48.958;8.294;2022-07-01T01:56:05;1.30;;;0.27;;
63438;SDS011;49567;48.958;8.294;2022-07-01T01:58:31;1.08;;;0.20;;
63438;SDS011;49567;48.958;8.294;2022-07-01T02:00:56;0.30;;;0.10;;
63438;SDS011;49567;48.958;8.294;2022-07-01T02:03:21;0.37;;;0.37;;
63438;SDS011;49567;48.958;8.294;2022-07-01T02:05:47;0.60;;;0.27;;
63438;SDS011;49567;48.958;8.294;2022-07-01T02:08:12;0.40;;;0.27;;
63438;SDS011;49567;48.958;8.294;2022-07-01T02:10:37;1.00;;;0.17;;
63438;SDS011;49567;48.958;8.294;2022-07-01T02:13:03;0.25;;;0.25;;
63438;SDS011;49567;48.958;8.294;2022-07-01T02:15:28;0.20;;;0.20;;
63438;SDS011;49567;48.958;8.294;2022-07-01T02:17:53;0.57;;;0.20;;
63438;SDS011;49567;48.958;8.294;2022-07-01T02:20:21;1.50;;;0.20;;
63438;SDS011;49567;48.958;8.294;2022-07-01T02:22:46;0.10;;;0.10;;
63438;SDS011;49567;48.958;8.294;2022-07-01T02:25:12;1.00;;;0.27;;
63438;SDS011;49567;48.958;8.294;2022-07-01T02:27:37;0.70;;;0.20;;
63438;SDS011;49567;48.958;8.294;2022-07-01T02:30:04;0.90;;;0.10;;
63438;SDS011;49567;48.958;8.294;2022-07-01T02:32:30;0.13;;;0.10;;
63438;SDS011;49567;48.958;8.294;2022-07-01T02:34:56;0.52;;;0.17;;
63438;SDS011;49567;48.958;8.294;2022-07-01T02:37:21;1.50;;;0.20;;
63438;SDS011;49567;48.958;8.294;2022-07-01T02:39:46;0.87;;;0.20;;
63438;SDS011;49567;48.958;8.294;2022-07-01T02:42:12;0.50;;;0.20;;
63438;SDS011;49567;48.958;8.294;2022-07-01T02:44:51;0.20;;;0.20;;
63438;SDS011;49567;48.958;8.294;2022-07-01T02:47:20;0.30;;;0.20;;
63438;SDS011;49567;48.958;8.294;2022-07-01T02:49:46;0.80;;;0.35;;
63438;SDS011;49567;48.958;8.294;2022-07-01T02:52:11;1.35;;;0.17;;
63438;SDS011;49567;48.958;8.294;2022-07-01T02:54:37;0.10;;;0.10;;
63438;SDS011;49567;48.958;8.294;2022-07-01T02:57:02;0.10;;;0.10;;
63438;SDS011;49567;48.958;8.294;2022-07-01T02:59:28;0.27;;;0.20;;
63438;SDS011;49567;48.958;8.294;2022-07-01T03:01:54;0.85;;;0.15;;
63438;SDS011;49567;48.958;8.294;2022-07-01T03:04:19;1.60;;;0.30;;
63438;SDS011;49567;48.958;8.294;2022-07-01T03:06:44;0.50;;;0.13;;
63438;SDS011;49567;48.958;8.294;2022-07-01T03:09:09;0.30;;;0.10;;
63438;SDS011;49567;48.958;8.294;2022-07-01T03:11:35;0.50;;;0.10;;
63438;SDS011;49567;48.958;8.294;2022-07-01T03:14:00;1.20;;;0.20;;
63438;SDS011;49567;48.958;8.294;2022-07-01T03:16:26;1.02;;;0.22;;
63438;SDS011;49567;48.958;8.294;2022-07-01T03:18:51;0.20;;;0.20;;
63438;SDS011;49567;48.958;8.294;2022-07-01T03:21:17;0.30;;;0.20;;
63438;SDS011;49567;48.958;8.294;2022-07-01T03:23:42;1.73;;;0.20;;
63438;SDS011;49567;48.958;8.294;2022-07-01T03:26:07;1.10;;;0.10;;
63438;SDS011;49567;48.958;8.294;2022-07-01T03:28:32;2.23;;;0.40;;
63438;SDS011;49567;48.958;8.294;2022-07-01T03:30:59;0.20;;;0.20;;
63438;SDS011;49567;48.958;8.294;2022-07-01T03:33:24;1.92;;;0.20;;
63438;SDS011;49567;48.958;8.294;2022-07-01T03:35:50;0.60;;;0.20;;
63438;SDS011;49567;48.958;8.294;2022-07-01T03:38:15;1.20;;;0.50;;
63438;SDS011;49567;48.958;8.294;2022-07-01T03:40:40;0.10;;;0.10;;
63438;SDS011;49567;48.958;8.294;2022-07-01T03:43:05;1.30;;;0.20;;
63438;SDS011;49567;48.958;8.294;2022-07-01T03:45:31;1.00;;;0.27;;
63438;SDS011;49567;48.958;8.294;2022-07-01T03:47:57;1.00;;;1.00;;
63438;SDS011;49567;48.958;8.294;2022-07-01T03:50:23;2.33;;;0.60;;
63438;SDS011;49567;48.958;8.294;2022-07-01T03:52:49;2.35;;;0.85;;
63438;SDS011;49567;48.958;8.294;2022-07-01T03:55:35;2.05;;;0.82;;
63438;SDS011;49567;48.958;8.294;2022-07-01T03:58:01;0.60;;;0.30;;
63438;SDS011;49567;48.958;8.294;2022-07-01T04:00:27;1.57;;;1.20;;
63438;SDS011;49567;48.958;8.294;2022-07-01T04:02:52;1.48;;;0.43;;
63438;SDS011;49567;48.958;8.294;2022-07-01T04:05:17;0.53;;;0.30;;
63438;SDS011;49567;48.958;8.294;2022-07-01T04:07:43;0.30;;;0.30;;
63438;SDS011;49567;48.958;8.294;2022-07-01T04:10:08;0.83;;;0.40;;
63438;SDS011;49567;48.958;8.294;2022-07-01T04:12:34;2.90;;;0.80;;
63438;SDS011;49567;48.958;8.294;2022-07-01T04:14:59;1.20;;;0.40;;
63438;SDS011;49567;48.958;8.294;2022-07-01T04:17:24;1.30;;;0.27;;
63438;SDS011;49567;48.958;8.294;2022-07-01T04:19:50;2.20;;;0.30;;
63438;SDS011;49567;48.958;8.294;2022-07-01T04:22:15;0.10;;;0.10;;
63438;SDS011;49567;48.958;8.294;2022-07-01T04:25:00;2.25;;;0.30;;
63438;SDS011;49567;48.958;8.294;2022-07-01T04:27:28;1.10;;;0.10;;
63438;SDS011;49567;48.958;8.294;2022-07-01T04:29:54;0.73;;;0.20;;
63438;SDS011;49567;48.958;8.294;2022-07-01T04:32:19;0.37;;;0.30;;
63438;SDS011;49567;48.958;8.294;2022-07-01T04:34:44;2.30;;;0.40;;
63438;SDS011;49567;48.958;8.294;2022-07-01T04:37:10;4.20;;;0.40;;
63438;SDS011;49567;48.958;8.294;2022-07-01T04:39:35;1.03;;;0.30;;
63438;SDS011;49567;48.958;8.294;2022-07-01T04:42:00;1.50;;;0.30;;
63438;SDS011;49567;48.958;8.294;2022-07-01T04:44:27;0.70;;;0.40;;
63438;SDS011;49567;48.958;8.294;2022-07-01T04:46:53;0.90;;;0.38;;
63438;SDS011;49567;48.958;8.294;2022-07-01T04:49:18;0.33;;;0.30;;
63438;SDS011;49567;48.958;8.294;2022-07-01T04:51:43;1.07;;;0.50;;
63438;SDS011;49567;48.958;8.294;2022-07-01T04:54:09;1.00;;;0.57;;
63438;SDS011;49567;48.958;8.294;2022-07-01T04:56:34;1.00;;;0.38;;
63438;SDS011;49567;48.958;8.294;2022-07-01T04:59:01;0.40;;;0.40;;
63438;SDS011;49567;48.958;8.294;2022-07-01T05:01:26;2.33;;;0.70;;
63438;SDS011;49567;48.958;8.294;2022-07-01T05:03:53;3.10;;;2.20;;
63438;SDS011;49567;48.958;8.294;2022-07-01T05:06:18;1.40;;;0.70;;
63438;SDS011;49567;48.958;8.294;2022-07-01T05:08:43;0.83;;;0.83;;
63438;SDS011;49567;48.958;8.294;2022-07-01T05:11:09;0.80;;;0.80;;
63438;SDS011;49567;48.958;8.294;2022-07-01T05:13:34;0.50;;;0.50;;
63438;SDS011;49567;48.958;8.294;2022-07-01T05:16:00;0.90;;;0.60;;
63438;SDS011;49567;48.958;8.294;2022-07-01T05:18:26;0.50;;;0.50;;
63438;SDS011;49567;48.958;8.294;2022-07-01T05:21:10;1.55;;;0.80;;
63438;SDS011;49567;48.958;8.294;2022-07-01T05:23:54;1.97;;;0.67;;
63438;SDS011;49567;48.958;8.294;2022-07-01T05:26:19;1.30;;;1.00;;
63438;SDS011;49567;48.958;8.294;2022-07-01T05:28:45;1.87;;;1.10;;
63438;SDS011;49567;48.958;8.294;2022-07-01T05:31:10;1.10;;;0.70;;
63438;SDS011;49567;48.958;8.294;2022-07-01T05:33:36;1.37;;;1.10;;
63438;SDS011;49567;48.958;8.294;2022-07-01T05:36:01;2.27;;;0.90;;
63438;SDS011;49567;48.958;8.294;2022-07-01T05:38:26;0.97;;;0.90;;
63438;SDS011;49567;48.958;8.294;2022-07-01T05:40:52;1.00;;;0.90;;
63438;SDS011;49567;48.958;8.294;2022-07-01T05:43:18;1.20;;;0.98;;
63438;SDS011;49567;48.958;8.294;2022-07-01T05:45:44;4.20;;;1.30;;
63438;SDS011;49567;48.958;8.294;2022-07-01T05:48:09;1.57;;;1.10;;
63438;SDS011;49567;48.958;8.294;2022-07-01T05:50:34;1.87;;;1.10;;
63438;SDS011;49567;48.958;8.294;2022-07-01T05:53:09;2.83;;;1.42;;
63438;SDS011;49567;48.958;8.294;2022-07-01T05:55:34;1.27;;;1.13;;
63438;SDS011;49567;48.958;8.294;2022-07-01T05:58:00;1.15;;;1.10;;
63438;SDS011;49567;48.958;8.294;2022-07-01T06:00:26;2.70;;;1.52;;
63438;SDS011;49567;48.958;8.294;2022-07-01T06:02:52;1.95;;;1.50;;
63438;SDS011;49567;48.958;8.294;2022-07-01T06:05:17;2.30;;;1.60;;
63438;SDS011;49567;48.958;8.294;2022-07-01T06:07:42;1.60;;;1.50;;
63438;SDS011;49567;48.958;8.294;2022-07-01T06:10:08;2.13;;;1.20;;
63438;SDS011;49567;48.958;8.294;2022-07-01T06:12:37;2.35;;;1.45;;
63438;SDS011;49567;48.958;8.294;2022-07-01T06:15:03;1.47;;;1.37;;
63438;SDS011;49567;48.958;8.294;2022-07-01T06:17:30;2.30;;;1.48;;
63438;SDS011;49567;48.958;8.294;2022-07-01T06:19:55;6.90;;;1.50;;
63438;SDS011;49567;48.958;8.294;2022-07-01T06:22:20;1.70;;;1.20;;
63438;SDS011;49567;48.958;8.294;2022-07-01T06:24:46;2.17;;;1.30;;
63438;SDS011;49567;48.958;8.294;2022-07-01T06:27:12;1.20;;;0.95;;
63438;SDS011;49567;48.958;8.294;2022-07-01T06:29:38;3.05;;;1.10;;
63438;SDS011;49567;48.958;8.294;2022-07-01T06:32:06;1.90;;;1.13;;
63438;SDS011;49567;48.958;8.294;2022-07-01T06:34:32;2.42;;;1.27;;
63438;SDS011;49567;48.958;8.294;2022-07-01T06:36:58;1.42;;;1.10;;
63438;SDS011;49567;48.958;8.294;2022-07-01T06:39:26;1.17;;;0.90;;
63438;SDS011;49567;48.958;8.294;2022-07-01T06:41:53;3.30;;;1.37;;
63438;SDS011;49567;48.958;8.294;2022-07-01T06:44:18;5.60;;;1.15;;
63438;SDS011;49567;48.958;8.294;2022-07-01T06:46:43;1.37;;;1.00;;
63438;SDS011;49567;48.958;8.294;2022-07-01T06:49:09;1.00;;;0.77;;
63438;SDS011;49567;48.958;8.294;2022-07-01T06:51:34;1.80;;;0.90;;
63438;SDS011;49567;48.958;8.294;2022-07-01T06:53:59;1.20;;;1.07;;
63438;SDS011;49567;48.958;8.294;2022-07-01T06:56:24;2.43;;;0.90;;
63438;SDS011;49567;48.958;8.294;2022-07-01T06:58:50;1.57;;;0.90;;
63438;SDS011;49567;48.958;8.294;2022-07-01T07:01:15;1.20;;;0.93;;
63438;SDS011;49567;48.958;8.294;2022-07-01T07:03:40;1.60;;;0.80;;
63438;SDS011;49567;48.958;8.294;2022-07-01T07:06:06;1.80;;;0.90;;
63438;SDS011;49567;48.958;8.294;2022-07-01T07:08:32;1.77;;;0.93;;
63438;SDS011;49567;48.958;8.294;2022-07-01T07:10:57;1.00;;;0.85;;
63438;SDS011;49567;48.958;8.294;2022-07-01T07:13:23;1.88;;;1.00;;
63438;SDS011;49567;48.958;8.294;2022-07-01T07:15:49;1.02;;;0.73;;
63438;SDS011;49567;48.958;8.294;2022-07-01T07:18:15;2.00;;;0.80;;
63438;SDS011;49567;48.958;8.294;2022-07-01T07:20:40;4.77;;;0.67;;
63438;SDS011;49567;48.958;8.294;2022-07-01T07:23:06;0.75;;;0.70;;
63438;SDS011;49567;48.958;8.294;2022-07-01T07:25:31;1.90;;;0.70;;
63438;SDS011;49567;48.958;8.294;2022-07-01T07:27:57;0.90;;;0.60;;
63438;SDS011;49567;48.958;8.294;2022-07-01T07:30:22;2.95;;;1.50;;
63438;SDS011;49567;48.958;8.294;2022-07-01T07:32:47;1.20;;;0.73;;
63438;SDS011;49567;48.958;8.294;2022-07-01T07:35:13;0.50;;;0.50;;
63438;SDS011;49567;48.958;8.294;2022-07-01T07:37:39;2.40;;;0.80;;
63438;SDS011;49567;48.958;8.294;2022-07-01T07:40:06;2.20;;;0.80;;
63438;SDS011;49567;48.958;8.294;2022-07-01T07:42:34;2.75;;;1.02;;
63438;SDS011;49567;48.958;8.294;2022-07-01T07:45:00;1.45;;;0.85;;
63438;SDS011;49567;48.958;8.294;2022-07-01T07:47:26;2.20;;;0.80;;
63438;SDS011;49567;48.958;8.294;2022-07-01T07:49:51;0.73;;;0.73;;
63438;SDS011;49567;48.958;8.294;2022-07-01T07:52:17;1.80;;;1.03;;
63438;SDS011;49567;48.958;8.294;2022-07-01T07:54:43;0.77;;;0.77;;
63438;SDS011;49567;48.958;8.294;2022-07-01T07:57:08;1.10;;;0.90;;
63438;SDS011;49567;48.958;8.294;2022-07-01T07:59:34;2.17;;;0.87;;
63438;SDS011;49567;48.958;8.294;2022-07-01T08:02:00;2.00;;;0.70;;
63438;SDS011;49567;48.958;8.294;2022-07-01T08:04:25;0.60;;;0.60;;
63438;SDS011;49567;48.958;8.294;2022-07-01T08:06:51;0.83;;;0.80;;
63438;SDS011;49567;48.958;8.294;2022-07-01T08:09:16;2.90;;;1.07;;
63438;SDS011;49567;48.958;8.294;2022-07-01T08:11:41;1.80;;;0.90;;
63438;SDS011;49567;48.958;8.294;2022-07-01T08:14:06;2.37;;;1.03;;
63438;SDS011;49567;48.958;8.294;2022-07-01T08:16:32;0.90;;;0.90;;
63438;SDS011;49567;48.958;8.294;2022-07-01T08:18:57;1.00;;;1.00;;
63438;SDS011;49567;48.958;8.294;2022-07-01T08:21:22;2.92;;;0.85;;
63438;SDS011;49567;48.958;8.294;2022-07-01T08:23:48;0.90;;;0.90;;
63438;SDS011;49567;48.958;8.294;2022-07-01T08:26:13;4.07;;;1.30;;
63438;SDS011;49567;48.958;8.294;2022-07-01T08:28:40;0.98;;;0.93;;
63438;SDS011;49567;48.958;8.294;2022-07-01T08:31:05;0.85;;;0.70;;
63438;SDS011;49567;48.958;8.294;2022-07-01T08:33:31;5.23;;;0.90;;
63438;SDS011;49567;48.958;8.294;2022-07-01T08:35:56;4.10;;;0.90;;
63438;SDS011;49567;48.958;8.294;2022-07-01T08:38:21;0.70;;;0.70;;
63438;SDS011;49567;48.958;8.294;2022-07-01T08:40:47;1.60;;;0.90;;
63438;SDS011;49567;48.958;8.294;2022-07-01T08:43:12;0.87;;;0.83;;
63438;SDS011;49567;48.958;8.294;2022-07-01T08:45:37;0.70;;;0.70;;
63438;SDS011;49567;48.958;8.294;2022-07-01T08:48:04;0.80;;;0.80;;
63438;SDS011;49567;48.958;8.294;2022-07-01T08:50:33;1.48;;;0.70;;
63438;SDS011;49567;48.958;8.294;2022-07-01T08:53:03;1.40;;;0.65;;
63438;SDS011;49567;48.958;8.294;2022-07-01T08:55:30;2.50;;;0.80;;
63438;SDS011;49567;48.958;8.294;2022-07-01T08:57:56;0.90;;;0.73;;
63438;SDS011;49567;48.958;8.294;2022-07-01T09:00:22;1.30;;;0.60;;
63438;SDS011;49567;48.958;8.294;2022-07-01T09:02:58;1.45;;;0.80;;
63438;SDS011;49567;48.958;8.294;2022-07-01T09:05:28;1.80;;;0.70;;
63438;SDS011;49567;48.958;8.294;2022-07-01T09:07:56;1.67;;;0.70;;
63438;SDS011;49567;48.958;8.294;2022-07-01T09:10:26;1.40;;;0.57;;
63438;SDS011;49567;48.958;8.294;2022-07-01T09:12:51;1.15;;;0.60;;
63438;SDS011;49567;48.958;8.294;2022-07-01T09:17:46;2.10;;;0.60;;
63438;SDS011;49567;48.958;8.294;2022-07-01T09:20:28;0.60;;;0.50;;
63438;SDS011;49567;48.958;8.294;2022-07-01T09:23:27;1.50;;;0.60;;
63438;SDS011;49567;48.958;8.294;2022-07-01T09:25:49;1.02;;;0.95;;
63438;SDS011;49567;48.958;8.294;2022-07-01T09:30:54;0.32;;;0.32;;
63438;SDS011;49567;48.958;8.294;2022-07-01T09:33:23;1.30;;;0.60;;
63438;SDS011;49567;48.958;8.294;2022-07-01T09:35:50;1.77;;;0.50;;
63438;SDS011;49567;48.958;8.294;2022-07-01T09:38:18;1.30;;;0.70;;
63438;SDS011;49567;48.958;8.294;2022-07-01T09:40:49;1.80;;;0.80;;
63438;SDS011;49567;48.958;8.294;2022-07-01T09:43:18;0.87;;;0.87;;
63438;SDS011;49567;48.958;8.294;2022-07-01T09:46:02;1.77;;;0.67;;
63438;SDS011;49567;48.958;8.294;2022-07-01T09:50:58;1.50;;;0.65;;
63438;SDS011;49567;48.958;8.294;2022-07-01T09:53:24;1.63;;;0.60;;
63438;SDS011;49567;48.958;8.294;2022-07-01T09:55:50;1.83;;;0.50;;
63438;SDS011;49567;48.958;8.294;2022-07-01T09:58:15;1.17;;;0.50;;
63438;SDS011;49567;48.958;8.294;2022-07-01T10:00:41;2.07;;;0.50;;
63438;SDS011;49567;48.958;8.294;2022-07-01T10:03:07;0.60;;;0.60;;
63438;SDS011;49567;48.958;8.294;2022-07-01T10:05:47;0.70;;;0.70;;
63438;SDS011;49567;48.958;8.294;2022-07-01T10:14:07;1.98;;;0.70;;
63438;SDS011;49567;48.958;8.294;2022-07-01T10:16:34;0.63;;;0.50;;
63438;SDS011;49567;48.958;8.294;2022-07-01T10:21:45;1.85;;;0.50;;
63438;SDS011;49567;48.958;8.294;2022-07-01T10:24:13;0.90;;;0.53;;
63438;SDS011;49567;48.958;8.294;2022-07-01T10:26:41;1.10;;;0.65;;
63438;SDS011;49567;48.958;8.294;2022-07-01T10:31:58;0.95;;;0.68;;
63438;SDS011;49567;48.958;8.294;2022-07-01T10:34:35;0.50;;;0.45;;
63438;SDS011;49567;48.958;8.294;2022-07-01T10:37:08;1.73;;;0.60;;
63438;SDS011;49567;48.958;8.294;2022-07-01T10:45:23;0.47;;;0.35;;
63438;SDS011;49567;48.958;8.294;2022-07-01T10:47:49;1.30;;;0.33;;
63438;SDS011;49567;48.958;8.294;2022-07-01T10:50:48;1.38;;;0.50;;
63438;SDS011;49567;48.958;8.294;2022-07-01T10:53:14;1.30;;;0.77;;
63438;SDS011;49567;48.958;8.294;2022-07-01T10:55:46;1.30;;;0.47;;
63438;SDS011;49567;48.958;8.294;2022-07-01T10:58:14;1.05;;;0.65;;
63438;SDS011;49567;48.958;8.294;2022-07-01T11:00:44;0.75;;;0.43;;
63438;SDS011;49567;48.958;8.294;2022-07-01T11:03:19;0.40;;;0.40;;
63438;SDS011;49567;48.958;8.294;2022-07-01T11:05:47;1.40;;;0.52;;
63438;SDS011;49567;48.958;8.294;2022-07-01T11:08:14;1.30;;;0.40;;
63438;SDS011;49567;48.958;8.294;2022-07-01T11:10:40;1.90;;;0.70;;
63438;SDS011;49567;48.958;8.294;2022-07-01T11:13:06;0.55;;;0.40;;
63438;SDS011;49567;48.958;8.294;2022-07-01T11:15:33;1.00;;;0.40;;
63438;SDS011;49567;48.958;8.294;2022-07-01T11:17:59;2.75;;;0.52;;
63438;SDS011;49567;48.958;8.294;2022-07-01T11:20:26;1.00;;;0.55;;
63438;SDS011;49567;48.958;8.294;2022-07-01T11:22:54;1.57;;;0.43;;
63438;SDS011;49567;48.958;8.294;2022-07-01T11:25:20;2.35;;;0.50;;
63438;SDS011;49567;48.958;8.294;2022-07-01T11:27:46;0.60;;;0.47;;
63438;SDS011;49567;48.958;8.294;2022-07-01T11:30:15;0.43;;;0.40;;
63438;SDS011;49567;48.958;8.294;2022-07-01T11:32:52;1.17;;;0.43;;
63438;SDS011;49567;48.958;8.294;2022-07-01T11:35:23;3.03;;;0.80;;
63438;SDS011;49567;48.958;8.294;2022-07-01T11:38:10;1.63;;;0.57;;
63438;SDS011;49567;48.958;8.294;2022-07-01T11:41:08;3.17;;;0.45;;
63438;SDS011;49567;48.958;8.294;2022-07-01T11:43:36;1.80;;;0.60;;
63438;SDS011;49567;48.958;8.294;2022-07-01T11:46:04;1.80;;;0.63;;
63438;SDS011;49567;48.958;8.294;2022-07-01T11:48:35;0.50;;;0.30;;
63438;SDS011;49567;48.958;8.294;2022-07-01T11:51:06;0.45;;;0.45;;
63438;SDS011;49567;48.958;8.294;2022-07-01T11:53:34;2.80;;;0.50;;
63438;SDS011;49567;48.958;8.294;2022-07-01T11:56:01;0.73;;;0.65;;
63438;SDS011;49567;48.958;8.294;2022-07-01T11:58:40;0.70;;;0.50;;
63438;SDS011;49567;48.958;8.294;2022-07-01T12:01:09;1.80;;;0.40;;
63438;SDS011;49567;48.958;8.294;2022-07-01T12:03:35;1.85;;;0.55;;
63438;SDS011;49567;48.958;8.294;2022-07-01T12:06:02;2.30;;;0.60;;
63438;SDS011;49567;48.958;8.294;2022-07-01T12:08:28;1.77;;;0.53;;
63438;SDS011;49567;48.958;8.294;2022-07-01T12:10:54;0.50;;;0.50;;
63438;SDS011;49567;48.958;8.294;2022-07-01T12:13:23;1.40;;;0.82;;
63438;SDS011;49567;48.958;8.294;2022-07-01T12:15:49;0.77;;;0.77;;
63438;SDS011;49567;48.958;8.294;2022-07-01T12:18:15;0.90;;;0.73;;
63438;SDS011;49567;48.958;8.294;2022-07-01T12:21:14;0.82;;;0.50;;
63438;SDS011;49567;48.958;8.294;2022-07-01T12:23:33;0.67;;;0.67;;
63438;SDS011;49567;48.958;8.294;2022-07-01T12:26:03;1.10;;;0.50;;
63438;SDS011;49567;48.958;8.294;2022-07-01T12:28:30;2.67;;;0.77;;
63438;SDS011;49567;48.958;8.294;2022-07-01T12:31:03;1.60;;;0.43;;
63438;SDS011;49567;48.958;8.294;2022-07-01T12:33:31;2.72;;;0.40;;
63438;SDS011;49567;48.958;8.294;2022-07-01T12:35:57;1.30;;;0.35;;
63438;SDS011;49567;48.958;8.294;2022-07-01T12:38:25;1.40;;;0.60;;
63438;SDS011;49567;48.958;8.294;2022-07-01T12:40:51;0.63;;;0.30;;
63438;SDS011;49567;48.958;8.294;2022-07-01T12:43:26;1.65;;;0.38;;
63438;SDS011;49567;48.958;8.294;2022-07-01T12:45:57;0.57;;;0.30;;
63438;SDS011;49567;48.958;8.294;2022-07-01T12:48:23;0.50;;;0.30;;
63438;SDS011;49567;48.958;8.294;2022-07-01T12:50:51;0.90;;;0.43;;
63438;SDS011;49567;48.958;8.294;2022-07-01T12:53:18;0.90;;;0.35;;
63438;SDS011;49567;48.958;8.294;2022-07-01T12:55:45;1.60;;;0.43;;
63438;SDS011;49567;48.958;8.294;2022-07-01T12:58:16;0.30;;;0.30;;
63438;SDS011;49567;48.958;8.294;2022-07-01T13:00:44;0.55;;;0.50;;
63438;SDS011;49567;48.958;8.294;2022-07-01T13:03:10;0.90;;;0.60;;
63438;SDS011;49567;48.958;8.294;2022-07-01T13:05:36;0.50;;;0.50;;
63438;SDS011;49567;48.958;8.294;2022-07-01T13:08:04;0.40;;;0.40;;
63438;SDS011;49567;48.958;8.294;2022-07-01T13:10:31;0.40;;;0.40;;
63438;SDS011;49567;48.958;8.294;2022-07-01T13:12:56;0.50;;;0.28;;
63438;SDS011;49567;48.958;8.294;2022-07-01T13:15:22;0.38;;;0.38;;
63438;SDS011;49567;48.958;8.294;2022-07-01T13:17:47;0.32;;;0.30;;
63438;SDS011;49567;48.958;8.294;2022-07-01T13:20:14;0.50;;;0.30;;
63438;SDS011;49567;48.958;8.294;2022-07-01T13:22:40;1.48;;;0.50;;
63438;SDS011;49567;48.958;8.294;2022-07-01T13:25:06;0.80;;;0.40;;
63438;SDS011;49567;48.958;8.294;2022-07-01T13:27:32;0.30;;;0.28;;
63438;SDS011;49567;48.958;8.294;2022-07-01T13:29:57;0.95;;;0.40;;
63438;SDS011;49567;48.958;8.294;2022-07-01T13:32:23;0.30;;;0.30;;
63438;SDS011;49567;48.958;8.294;2022-07-01T13:34:49;0.70;;;0.40;;
63438;SDS011;49567;48.958;8.294;2022-07-01T13:37:14;0.10;;;0.10;;
63438;SDS011;49567;48.958;8.294;2022-07-01T13:39:39;1.73;;;0.53;;
63438;SDS011;49567;48.958;8.294;2022-07-01T13:42:05;1.67;;;0.30;;
63438;SDS011;49567;48.958;8.294;2022-07-01T13:44:30;0.40;;;0.32;;
63438;SDS011;49567;48.958;8.294;2022-07-01T13:46:55;0.57;;;0.20;;
63438;SDS011;49567;48.958;8.294;2022-07-01T13:49:21;0.50;;;0.35;;
63438;SDS011;49567;48.958;8.294;2022-07-01T13:51:46;0.98;;;0.30;;
63438;SDS011;49567;48.958;8.294;2022-07-01T13:54:11;0.85;;;0.25;;
63438;SDS011;49567;48.958;8.294;2022-07-01T13:56:37;2.85;;;0.40;;
63438;SDS011;49567;48.958;8.294;2022-07-01T13:59:02;0.98;;;0.30;;
63438;SDS011;49567;48.958;8.294;2022-07-01T14:01:28;1.40;;;0.30;;
63438;SDS011;49567;48.958;8.294;2022-07-01T14:03:54;1.80;;;0.40;;
63438;SDS011;49567;48.958;8.294;2022-07-01T14:06:19;0.20;;;0.20;;
63438;SDS011;49567;48.958;8.294;2022-07-01T14:08:45;0.40;;;0.30;;
63438;SDS011;49567;48.958;8.294;2022-07-01T14:11:11;0.68;;;0.38;;
63438;SDS011;49567;48.958;8.294;2022-07-01T14:13:36;0.30;;;0.30;;
63438;SDS011;49567;48.958;8.294;2022-07-01T14:16:02;0.43;;;0.30;;
63438;SDS011;49567;48.958;8.294;2022-07-01T14:18:32;1.02;;;0.20;;
63438;SDS011;49567;48.958;8.294;2022-07-01T14:20:59;4.57;;;0.40;;
63438;SDS011;49567;48.958;8.294;2022-07-01T14:23:26;0.50;;;0.15;;
63438;SDS011;49567;48.958;8.294;2022-07-01T14:25:51;0.20;;;0.20;;
63438;SDS011;49567;48.958;8.294;2022-07-01T14:28:17;2.33;;;0.30;;
63438;SDS011;49567;48.958;8.294;2022-07-01T14:30:42;2.30;;;0.23;;
63438;SDS011;49567;48.958;8.294;2022-07-01T14:33:07;0.20;;;0.20;;
63438;SDS011;49567;48.958;8.294;2022-07-01T14:35:32;0.60;;;0.30;;
63438;SDS011;49567;48.958;8.294;2022-07-01T14:37:58;0.90;;;0.20;;
63438;SDS011;49567;48.958;8.294;2022-07-01T14:40:23;0.60;;;0.20;;
63438;SDS011;49567;48.958;8.294;2022-07-01T14:42:50;0.80;;;0.38;;
63438;SDS011;49567;48.958;8.294;2022-07-01T14:45:15;0.50;;;0.40;;
63438;SDS011;49567;48.958;8.294;2022-07-01T14:47:41;0.90;;;0.30;;
63438;SDS011;49567;48.958;8.294;2022-07-01T14:50:06;0.40;;;0.40;;
63438;SDS011;49567;48.958;8.294;2022-07-01T14:52:32;0.88;;;0.47;;
63438;SDS011;49567;48.958;8.294;2022-07-01T14:54:58;1.20;;;0.40;;
63438;SDS011;49567;48.958;8.294;2022-07-01T14:57:23;0.65;;;0.30;;
63438;SDS011;49567;48.958;8.294;2022-07-01T14:59:49;0.50;;;0.30;;
63438;SDS011;49567;48.958;8.294;2022-07-01T15:02:17;1.20;;;0.40;;
63438;SDS011;49567;48.958;8.294;2022-07-01T15:04:43;0.70;;;0.28;;
63438;SDS011;49567;48.958;8.294;2022-07-01T15:07:10;3.30;;;0.50;;
63438;SDS011;49567;48.958;8.294;2022-07-01T15:09:36;0.40;;;0.20;;
63438;SDS011;49567;48.958;8.294;2022-07-01T15:12:02;2.27;;;0.30;;